Sunday, December 16, 2018, 3:31 PM GMT
Back to Local

CYYY, Mont Joli, Que.

Location: , , Canada Lat: 48.6
Local Time: 3:31 PM GMT (15:31 GMT) Lon: -68.217
Time Zone: GMT Elev: 157 ft

Show me the last for .
Show Coded

Time T Td Feel RH Dir Speed Gust Alt SLP Vis Weather Sky Remarks
2018-12-16 15:00 30 21 25 68 220° 5 - 30.23 30.24 30 BKN023 None
2018-12-16 14:00 28 23 25 79 190° 3 - 30.23 30.24 30 BKN025 None
2018-12-16 13:00 27 21 20 79 190° 6 - 30.23 30.24 30 BKN026 None
2018-12-16 12:00 28 23 - 79 Variable 2 - 30.23 30.24 30 BKN035 None
2018-12-16 11:00 28 23 20 79 340° 8 - 30.23 30.24 15 BKN029 None
2018-12-16 10:00 30 23 20 74 320° 13 - 30.23 30.24 15 OVC025 None
2018-12-16 09:00 32 25 21 74 310° 12 17 30.24 30.25 15 OVC025 None
2018-12-16 08:00 32 27 25 80 270° 8 - 30.25 30.26 15 OVC026 None
2018-12-16 07:00 32 25 24 74 280° 9 - 30.25 30.26 15 OVC027 None
2018-12-16 06:00 32 25 26 74 270° 6 - 30.24 30.25 15 OVC028 None
2018-12-16 05:00 32 27 24 80 280° 9 - 30.23 30.24 15 OVC028 None
2018-12-16 04:00 32 27 23 80 280° 13 - 30.21 30.22 15 OVC030 None
2018-12-16 03:00 32 28 24 86 270° 10 - 30.18 30.20 15 OVC032 None
2018-12-16 02:00 34 28 26 80 250° 10 - 30.16 30.18 15 OVC035 None
2018-12-16 01:00 34 28 24 80 250° 15 - 30.16 30.18 15 OVC040 None
2018-12-16 00:00 34 25 25 69 260° 12 - 30.16 30.17 15 BKN045 None
2018-12-15 23:00 34 25 26 69 270° 9 - 30.13 30.15 30 BKN045 None
2018-12-15 22:00 34 25 26 69 270° 9 - 30.12 30.13 30 BKN042 None
2018-12-15 21:00 34 27 25 74 270° 12 - 30.10 30.11 30 BKN046 None
2018-12-15 20:00 36 27 27 69 260° 14 - 30.07 30.08 30 BKN055 None
2018-12-15 19:00 36 28 26 74 260° 15 - 30.02 30.04 30 OVC040 None
2018-12-15 18:00 36 28 24 74 260° 16 23 30.00 30.01 30 FEW037 BKN065 None
2018-12-15 17:00 36 28 24 74 250° 18 24 29.99 30.00 30 BKN045 None
2018-12-15 16:00 36 28 23 74 260° 17 25 29.98 29.99 30 BKN042 None

Support USWX by starting your Amazon purchase here.